createdAt,value
2019-05-07T00:03:03.199Z,100519.12
2019-05-07T00:08:06.710Z,100512.53
2019-05-07T00:13:12.731Z,100512.53
2019-05-07T00:18:15.973Z,100509.84
2019-05-07T00:23:19.734Z,100515.95
2019-05-07T00:28:23.501Z,100515.95
2019-05-07T00:33:27.283Z,100505.34
2019-05-07T00:38:33.984Z,100505.34
2019-05-07T00:43:40.091Z,100504.93
2019-05-07T00:48:43.880Z,100504.93
2019-05-07T00:53:47.684Z,100507.02
2019-05-07T00:58:52.756Z,100497.44
2019-05-07T01:03:57.433Z,100497.44
2019-05-07T01:09:03.200Z,100484.06
2019-05-07T01:14:06.719Z,100484.06
2019-05-07T01:19:12.531Z,100487.96
2019-05-07T01:24:16.012Z,100487.96
2019-05-07T01:29:19.811Z,100502.00
2019-05-07T01:34:29.658Z,100507.56
2019-05-07T01:39:33.444Z,100501.80
2019-05-07T01:44:37.216Z,100501.80
2019-05-07T01:49:42.216Z,100508.05
2019-05-07T01:54:47.512Z,100508.05
2019-05-07T01:59:52.800Z,100505.16
2019-05-07T02:05:26.262Z,100507.96
2019-05-07T02:11:04.194Z,100505.39
2019-05-07T02:16:08.053Z,100505.39
2019-05-07T02:21:12.847Z,100507.92
2019-05-07T02:26:16.927Z,100504.63
2019-05-07T02:31:23.121Z,100497.55
2019-05-07T02:36:26.324Z,100482.34
2019-05-07T02:41:33.316Z,100495.22
2019-05-07T02:46:57.583Z,100495.22
2019-05-07T02:52:07.465Z,100495.67
2019-05-07T02:57:16.642Z,100494.41
2019-05-07T03:02:16.725Z,100493.44
2019-05-07T03:07:23.891Z,100495.47
2019-05-07T03:12:27.385Z,100492.41
2019-05-07T03:17:33.288Z,100488.27
2019-05-07T03:22:36.730Z,100482.53
2019-05-07T03:27:43.170Z,100482.53
2019-05-07T03:32:56.673Z,100493.70
2019-05-07T03:38:03.502Z,100490.27
2019-05-07T03:43:06.610Z,100490.27
2019-05-07T03:48:13.736Z,100504.89
2019-05-07T03:53:17.722Z,100504.89
2019-05-07T03:58:23.615Z,100507.15
2019-05-07T04:03:27.067Z,100511.29
2019-05-07T04:08:33.437Z,100507.84
2019-05-07T04:13:36.445Z,100512.45
2019-05-07T04:18:43.358Z,100510.27
2019-05-07T04:23:45.839Z,100520.25
2019-05-07T04:29:05.556Z,100523.41
2019-05-07T04:34:17.895Z,100526.58
2019-05-07T04:39:23.230Z,100529.27
2019-05-07T04:44:27.280Z,100527.18
2019-05-07T04:49:33.159Z,100537.91
2019-05-07T04:54:36.627Z,100543.75
2019-05-07T04:59:42.902Z,100547.77
2019-05-07T05:04:45.931Z,100547.77
2019-05-07T05:09:49.901Z,100550.16
2019-05-07T05:14:53.693Z,100551.13
2019-05-07T05:20:00.361Z,100551.63
2019-05-07T05:25:22.761Z,100561.74
2019-05-07T05:30:34.022Z,100561.74
2019-05-07T05:35:37.898Z,100559.06
2019-05-07T05:40:42.644Z,100563.68
2019-05-07T05:45:47.564Z,100574.77
2019-05-07T05:51:02.668Z,100574.77
2019-05-07T05:56:12.806Z,100574.77
2019-05-07T06:01:35.593Z,100572.58
2019-05-07T06:06:49.079Z,100574.41
2019-05-07T06:12:06.917Z,100572.69
2019-05-07T06:17:16.982Z,100576.23
2019-05-07T06:22:42.547Z,100584.16
2019-05-07T06:27:46.641Z,100582.67
2019-05-07T06:32:52.258Z,100582.67
2019-05-07T06:37:56.642Z,100598.58
2019-05-07T06:43:28.540Z,100598.58
2019-05-07T06:48:42.046Z,100607.80
2019-05-07T06:53:37.846Z,100607.80
2019-05-07T06:58:49.780Z,100617.06
2019-05-07T07:04:04.093Z,100642.21
2019-05-07T07:09:39.162Z,100642.21
2019-05-07T07:14:43.655Z,100665.77
2019-05-07T07:19:47.445Z,100665.77
2019-05-07T07:24:53.120Z,100666.24
2019-05-07T07:30:18.735Z,100659.52
2019-05-07T07:35:22.645Z,100656.86
2019-05-07T07:40:42.234Z,100641.48
2019-05-07T07:45:46.235Z,100638.22
2019-05-07T07:50:52.355Z,100642.61
2019-05-07T07:56:13.360Z,100648.41
2019-05-07T08:01:23.615Z,100648.41
2019-05-07T08:06:29.395Z,100640.76
2019-05-07T08:11:34.471Z,100628.44
2019-05-07T08:16:38.290Z,100642.30
2019-05-07T08:21:42.246Z,100646.62
2019-05-07T08:26:46.035Z,100652.23
2019-05-07T08:32:22.303Z,100634.48
2019-05-07T08:37:26.285Z,100647.22
2019-05-07T08:42:32.059Z,100653.81
2019-05-07T08:47:44.993Z,100653.81
2019-05-07T08:52:48.769Z,100652.35
2019-05-07T08:57:52.565Z,100643.94
2019-05-07T09:02:56.381Z,100647.95
2019-05-07T09:08:02.094Z,100647.95
2019-05-07T09:13:05.693Z,100631.16
2019-05-07T09:18:09.473Z,100633.72
2019-05-07T09:23:13.239Z,100629.33
2019-05-07T09:28:17.212Z,100628.10
2019-05-07T09:33:32.044Z,100623.22
2019-05-07T09:38:35.970Z,100618.11
2019-05-07T09:43:39.758Z,100615.43
2019-05-07T09:48:43.535Z,100613.17
2019-05-07T09:53:47.326Z,100609.15
2019-05-07T09:58:53.071Z,100603.78
2019-05-07T10:09:12.190Z,100585.78
2019-05-07T10:14:16.052Z,100586.72
2019-05-07T10:19:22.099Z,100586.72
2019-05-07T10:24:25.379Z,100593.34
2019-05-07T10:29:29.153Z,100583.95
2019-05-07T10:34:32.933Z,100580.30
2019-05-07T10:39:36.739Z,100578.47
2019-05-07T10:44:46.640Z,100580.66
2019-05-07T10:50:11.374Z,100580.66
2019-05-07T10:55:14.913Z,100578.84
2019-05-07T11:00:22.573Z,100573.47
2019-05-07T11:05:26.492Z,100569.00
2019-05-07T11:10:32.413Z,100560.95
2019-05-07T11:15:36.248Z,100559.12
2019-05-07T11:20:48.915Z,100559.12
2019-05-07T11:25:45.631Z,100548.64
2019-05-07T11:30:49.628Z,100546.69
2019-05-07T11:35:53.479Z,100539.50
2019-05-07T11:40:57.255Z,100548.03
2019-05-07T11:46:14.638Z,100548.17
2019-05-07T11:51:24.816Z,100540.45
2019-05-07T11:56:28.596Z,100540.45
2019-05-07T12:01:43.959Z,100541.45
2019-05-07T12:06:38.499Z,100525.15
2019-05-07T12:11:42.710Z,100514.57
2019-05-07T12:16:46.564Z,100508.98
2019-05-07T12:21:52.506Z,100498.25
2019-05-07T12:26:55.849Z,100495.65
2019-05-07T12:32:10.530Z,100498.45
2019-05-07T12:37:14.320Z,100498.45
2019-05-07T12:42:18.094Z,100498.69
2019-05-07T12:47:22.505Z,100492.52
2019-05-07T12:52:48.761Z,100484.71
2019-05-07T12:57:52.547Z,100478.85
2019-05-07T13:03:27.458Z,100477.02
2019-05-07T13:08:32.948Z,100467.39
2019-05-07T13:13:36.891Z,100468.12
2019-05-07T13:18:42.294Z,100468.12
2019-05-07T13:23:46.255Z,100456.69
2019-05-07T13:28:50.094Z,100456.69
2019-05-07T13:33:53.875Z,100448.14
2019-05-07T13:39:08.197Z,100448.14
2019-05-07T13:44:24.257Z,100448.88
2019-05-07T13:49:28.150Z,100434.77
2019-05-07T13:54:32.466Z,100434.77
2019-05-07T13:59:36.393Z,100436.36
2019-05-07T14:04:41.954Z,100425.97
2019-05-07T14:09:45.874Z,100421.70
2019-05-07T14:14:49.657Z,100419.77
2019-05-07T14:19:53.430Z,100417.81
2019-05-07T14:24:57.222Z,100417.81
2019-05-07T14:30:02.719Z,100412.91
2019-05-07T14:35:24.699Z,100412.91
2019-05-07T14:40:28.537Z,100409.86
2019-05-07T14:45:32.763Z,100406.80
2019-05-07T14:50:36.650Z,100411.95
2019-05-07T14:55:41.860Z,100405.48
2019-05-07T15:00:45.892Z,100386.06
2019-05-07T15:05:49.758Z,100403.28
2019-05-07T15:10:53.563Z,100401.59
2019-05-07T15:15:57.331Z,100396.35
2019-05-07T15:21:01.871Z,100401.47
2019-05-07T15:26:05.988Z,100401.47
2019-05-07T15:31:42.370Z,100395.38
2019-05-07T15:36:46.096Z,100395.12
2019-05-07T15:41:51.798Z,100392.56
2019-05-07T15:46:57.196Z,100391.35
2019-05-07T15:52:03.493Z,100391.35
2019-05-07T15:57:09.347Z,100385.11
2019-05-07T16:02:24.035Z,100383.77
2019-05-07T16:07:27.835Z,100383.77
2019-05-07T16:12:31.994Z,100385.55
2019-05-07T16:17:49.540Z,100384.27
2019-05-07T16:22:56.530Z,100384.27
2019-05-07T16:28:04.444Z,100374.95
2019-05-07T16:33:06.094Z,100376.26
2019-05-07T16:38:09.884Z,100376.26
2019-05-07T16:43:14.126Z,100352.91
2019-05-07T16:48:17.948Z,100372.88
2019-05-07T16:53:29.655Z,100369.34
2019-05-07T16:58:46.221Z,100372.64
2019-05-07T17:03:54.586Z,100372.64
2019-05-07T17:09:17.397Z,100352.97
2019-05-07T17:14:21.189Z,100364.44
2019-05-07T17:19:24.987Z,100363.81
2019-05-07T17:24:28.757Z,100363.81
2019-05-07T17:29:32.524Z,100372.87
2019-05-07T17:34:36.458Z,100372.87
2019-05-07T17:39:42.538Z,100375.06
2019-05-07T17:44:45.929Z,100363.39
2019-05-07T17:49:52.712Z,100362.63
2019-05-07T17:54:56.389Z,100357.79
2019-05-07T18:00:02.209Z,100357.79
2019-05-07T18:05:06.438Z,100361.83
2019-05-07T18:10:12.447Z,100356.94
2019-05-07T18:15:16.137Z,100356.94
2019-05-07T18:20:22.096Z,100357.16
2019-05-07T18:25:25.455Z,100360.92
2019-05-07T18:30:29.379Z,100366.20
2019-05-07T18:35:33.141Z,100362.45
2019-05-07T18:40:36.911Z,100361.34
2019-05-07T18:45:40.677Z,100361.34
2019-05-07T18:50:44.467Z,100362.37
2019-05-07T18:55:48.249Z,100353.55
2019-05-07T19:00:55.252Z,100357.56
2019-05-07T19:05:59.027Z,100357.56
2019-05-07T19:11:05.693Z,100356.80
2019-05-07T19:16:08.706Z,100365.50
2019-05-07T19:21:12.491Z,100364.39
2019-05-07T19:26:16.263Z,100368.84
2019-05-07T19:31:22.005Z,100365.80
2019-05-07T19:36:25.546Z,100351.55
2019-05-07T19:41:29.373Z,100357.87
2019-05-07T19:46:33.406Z,100354.14
2019-05-07T19:51:39.256Z,100349.26
2019-05-07T19:56:43.048Z,100349.26
2019-05-07T20:01:51.991Z,100347.73
2019-05-07T20:06:55.952Z,100338.59
2019-05-07T20:11:59.862Z,100329.68
2019-05-07T20:17:03.804Z,100322.73
2019-05-07T20:22:07.671Z,100327.26
2019-05-07T20:27:12.514Z,100326.18
2019-05-07T20:32:16.459Z,100318.70
2019-05-07T20:37:21.994Z,100310.16
2019-05-07T20:42:26.267Z,100310.16
2019-05-07T20:47:32.421Z,100316.52
2019-05-07T20:52:35.694Z,100314.18
2019-05-07T20:57:42.760Z,100313.20
2019-05-07T21:02:48.403Z,100307.96
2019-05-07T21:07:52.470Z,100307.73
2019-05-07T21:12:56.316Z,100307.73
2019-05-07T21:18:00.127Z,100302.09
2019-05-07T21:23:03.993Z,100302.09
2019-05-07T21:28:07.762Z,100290.00
2019-05-07T21:33:12.035Z,100292.45
2019-05-07T21:38:15.985Z,100288.92
2019-05-07T21:43:21.883Z,100290.89
2019-05-07T21:48:25.265Z,100290.89
2019-05-07T21:53:34.323Z,100287.59
2019-05-07T21:58:45.241Z,100279.30
2019-05-07T22:03:52.453Z,100279.30
2019-05-07T22:08:56.282Z,100277.85
2019-05-07T22:14:02.068Z,100274.18
2019-05-07T22:19:05.822Z,100279.56
2019-05-07T22:24:09.612Z,100275.30
2019-05-07T22:29:13.514Z,100270.38
2019-05-07T22:34:39.610Z,100268.68
2019-05-07T22:39:43.472Z,100260.39
2019-05-07T22:44:47.239Z,100255.77
2019-05-07T22:49:53.503Z,100245.88
2019-05-07T22:54:56.595Z,100245.88
2019-05-07T23:00:04.234Z,100241.22
2019-05-07T23:05:06.199Z,100228.77
2019-05-07T23:10:11.907Z,100212.91
2019-05-07T23:15:15.772Z,100212.91
2019-05-07T23:20:19.518Z,100205.12
2019-05-07T23:25:24.591Z,100187.79
2019-05-07T23:30:28.619Z,100183.05
2019-05-07T23:35:32.930Z,100183.05
2019-05-07T23:40:49.932Z,100181.34
2019-05-07T23:45:53.779Z,100181.58
2019-05-07T23:50:57.594Z,100187.08
2019-05-07T23:56:02.848Z,100175.26
